createdAt,value
2023-05-25T00:00:30.390Z,99162.75
2023-05-25T00:05:35.334Z,99155.84
2023-05-25T00:10:39.023Z,99157.75
2023-05-25T00:15:42.666Z,99149.09
2023-05-25T00:20:48.475Z,99145.88
2023-05-25T00:25:52.024Z,99138.16
2023-05-25T00:30:56.077Z,99139.16
2023-05-25T00:36:01.306Z,99140.97
2023-05-25T00:41:06.105Z,99139.38
2023-05-25T00:46:11.777Z,99142.91
2023-05-25T00:51:17.379Z,99143.16
2023-05-25T00:56:24.047Z,99150.19
2023-05-25T01:01:33.661Z,99133.72
2023-05-25T01:06:45.467Z,99126.59
2023-05-25T01:11:52.890Z,99129.09
2023-05-25T01:16:57.035Z,99123.94
2023-05-25T01:22:07.819Z,99110.81
2023-05-25T01:27:17.404Z,99104.81
2023-05-25T01:32:21.765Z,99099.53
2023-05-25T01:37:28.693Z,99106.06
2023-05-25T01:42:32.156Z,99104.84
2023-05-25T01:47:45.771Z,99090.25
2023-05-25T01:52:56.718Z,99093.16
2023-05-25T01:58:01.047Z,99105.97
2023-05-25T02:03:05.978Z,99107.28
2023-05-25T02:08:10.978Z,99105.94
2023-05-25T02:13:14.509Z,99105.75
2023-05-25T02:18:18.380Z,99099.97
2023-05-25T02:23:23.231Z,99102.28
2023-05-25T02:28:26.749Z,99087.53
2023-05-25T02:33:30.598Z,99100.94
2023-05-25T02:38:35.522Z,99103.03
2023-05-25T02:43:39.414Z,99102.78
2023-05-25T02:48:44.082Z,99123.00
2023-05-25T02:53:49.463Z,99132.75
2023-05-25T02:58:54.628Z,99135.81
2023-05-25T03:03:58.439Z,99144.94
2023-05-25T03:09:05.283Z,99144.19
2023-05-25T03:14:08.893Z,99155.19
2023-05-25T03:19:13.001Z,99170.34
2023-05-25T03:24:17.965Z,99169.75
2023-05-25T03:29:21.832Z,99174.72
2023-05-25T03:34:26.472Z,99172.44
2023-05-25T03:39:31.613Z,99160.69
2023-05-25T03:44:35.097Z,99164.50
2023-05-25T03:49:38.595Z,99173.47
2023-05-25T03:54:43.539Z,99168.44
2023-05-25T03:59:47.139Z,99146.41
2023-05-25T04:04:52.088Z,99149.97
2023-05-25T04:09:58.300Z,99154.31
2023-05-25T04:15:04.134Z,99137.44
2023-05-25T04:20:11.185Z,99137.19
2023-05-25T04:25:17.181Z,99151.50
2023-05-25T04:30:20.710Z,99145.41
2023-05-25T04:35:24.204Z,99157.25
2023-05-25T04:40:29.141Z,99150.66
2023-05-25T04:45:33.526Z,99142.75
2023-05-25T04:50:37.569Z,99135.09
2023-05-25T04:55:42.841Z,99137.84
2023-05-25T05:00:47.399Z,99135.91
2023-05-25T05:05:50.936Z,99152.78
2023-05-25T05:10:55.942Z,99151.84
2023-05-25T05:15:59.577Z,99151.88
2023-05-25T05:21:03.606Z,99148.16
2023-05-25T05:26:11.175Z,99144.50
2023-05-25T05:31:17.410Z,99150.13
2023-05-25T05:36:21.035Z,99141.81
2023-05-25T05:41:26.023Z,99137.72
2023-05-25T05:46:29.785Z,99137.72
2023-05-25T05:51:33.656Z,99136.53
2023-05-25T05:56:38.627Z,99128.25
2023-05-25T06:01:42.784Z,99134.97
2023-05-25T06:06:46.487Z,99145.84
2023-05-25T06:11:51.687Z,99147.03
2023-05-25T06:16:56.097Z,99147.59
2023-05-25T06:21:59.749Z,99150.91
2023-05-25T06:27:05.104Z,99149.69
2023-05-25T06:32:11.092Z,99153.19
2023-05-25T06:37:15.863Z,99148.06
2023-05-25T06:42:20.861Z,99146.94
2023-05-25T06:47:24.452Z,99148.53
2023-05-25T06:52:29.468Z,99149.25
2023-05-25T06:57:34.829Z,99150.09
2023-05-25T07:02:38.426Z,99156.16
2023-05-25T07:07:42.038Z,99151.63
2023-05-25T07:12:47.141Z,99142.00
2023-05-25T07:17:50.770Z,99136.59
2023-05-25T07:22:54.741Z,99138.41
2023-05-25T07:27:59.354Z,99123.72
2023-05-25T07:33:02.862Z,99127.22
2023-05-25T07:38:06.843Z,99121.81
2023-05-25T07:43:11.547Z,99126.84
2023-05-25T07:48:15.385Z,99123.25
2023-05-25T07:53:18.656Z,99121.06
2023-05-25T07:58:23.618Z,99121.38
2023-05-25T08:03:39.914Z,99115.16
2023-05-25T08:08:50.977Z,99122.31
2023-05-25T08:14:19.744Z,99129.22
2023-05-25T08:19:24.338Z,99122.22
2023-05-25T08:24:27.867Z,99133.16
2023-05-25T08:29:32.794Z,99136.91
2023-05-25T08:34:36.333Z,99131.22
2023-05-25T08:39:39.947Z,99135.38
2023-05-25T08:44:45.064Z,99131.09
2023-05-25T08:49:51.138Z,99126.81
2023-05-25T08:54:59.870Z,99125.34
2023-05-25T09:00:10.977Z,99134.69
2023-05-25T09:05:15.087Z,99119.94
2023-05-25T09:10:19.220Z,99136.03
2023-05-25T09:15:24.140Z,99135.22
2023-05-25T09:20:31.758Z,99132.22
2023-05-25T09:25:36.693Z,99124.38
2023-05-25T09:30:42.293Z,99115.00
2023-05-25T09:35:46.316Z,99109.97
2023-05-25T09:40:49.813Z,99118.75
2023-05-25T09:45:55.454Z,99114.59
2023-05-25T09:50:59.244Z,99115.06
2023-05-25T09:56:04.188Z,99111.03
2023-05-25T10:01:09.570Z,99113.88
2023-05-25T10:06:14.457Z,99103.97
2023-05-25T10:11:18.894Z,99110.97
2023-05-25T10:16:28.118Z,99116.59
2023-05-25T10:21:33.008Z,99119.53
2023-05-25T10:26:41.780Z,99117.34
2023-05-25T10:31:47.528Z,99111.56
2023-05-25T10:36:52.514Z,99120.78
2023-05-25T10:41:57.096Z,99117.09
2023-05-25T10:47:02.134Z,99109.38
2023-05-25T10:52:06.373Z,99117.72
2023-05-25T10:57:11.367Z,99114.22
2023-05-25T11:02:16.844Z,99114.22
2023-05-25T11:07:23.471Z,99105.31
2023-05-25T11:12:28.383Z,99093.50
2023-05-25T11:17:36.176Z,99095.38
2023-05-25T11:22:40.567Z,99092.88
2023-05-25T11:27:47.626Z,99093.72
2023-05-25T11:32:52.740Z,99086.88
2023-05-25T11:37:56.577Z,99075.84
2023-05-25T11:43:01.458Z,99070.00
2023-05-25T11:48:07.750Z,99066.75
2023-05-25T11:53:11.975Z,99054.25
2023-05-25T11:58:16.477Z,98985.81
2023-05-25T12:03:33.908Z,99057.38
2023-05-25T12:08:37.808Z,99061.13
2023-05-25T12:13:42.847Z,99053.81
2023-05-25T12:18:48.411Z,99046.63
2023-05-25T12:23:52.440Z,99046.38
2023-05-25T12:29:03.121Z,99049.25
2023-05-25T12:34:12.366Z,99055.22
2023-05-25T12:39:17.276Z,99052.63
2023-05-25T12:44:27.879Z,99038.41
2023-05-25T12:49:34.226Z,99043.34
2023-05-25T12:54:41.180Z,99037.28
2023-05-25T12:59:45.833Z,99036.06
2023-05-25T13:04:50.890Z,99032.47
2023-05-25T13:09:54.626Z,99015.66
2023-05-25T13:14:58.176Z,99022.94
2023-05-25T13:20:04.688Z,99025.06
2023-05-25T13:25:08.737Z,99018.81
2023-05-25T13:30:12.696Z,99018.19
2023-05-25T13:35:23.556Z,99023.00
2023-05-25T13:40:27.603Z,99012.06
2023-05-25T13:45:31.153Z,99009.41
2023-05-25T13:50:36.152Z,99012.56
2023-05-25T13:55:39.774Z,99006.81
2023-05-25T14:00:43.544Z,99001.06
2023-05-25T14:05:49.017Z,99006.81
2023-05-25T14:10:54.470Z,99001.66
2023-05-25T14:15:58.034Z,98996.34
2023-05-25T14:21:03.018Z,98960.72
2023-05-25T14:26:06.677Z,98981.75
2023-05-25T14:31:10.285Z,98970.75
2023-05-25T14:36:15.230Z,98958.72
2023-05-25T14:41:18.743Z,98961.97
2023-05-25T14:46:22.600Z,98957.41
2023-05-25T14:51:27.804Z,98957.78
2023-05-25T14:56:32.766Z,98949.06
2023-05-25T15:01:36.436Z,98935.81
2023-05-25T15:06:41.471Z,98942.81
2023-05-25T15:11:45.067Z,98943.66
2023-05-25T15:16:48.578Z,98941.19
2023-05-25T15:21:53.536Z,98941.97
2023-05-25T15:26:57.064Z,98945.28
2023-05-25T15:32:00.818Z,98940.75
2023-05-25T15:37:06.337Z,98940.94
2023-05-25T15:42:09.869Z,98946.34
2023-05-25T15:47:13.557Z,98944.13
2023-05-25T15:52:18.458Z,98954.91
2023-05-25T15:57:21.804Z,98957.28
2023-05-25T16:02:25.371Z,98948.03
2023-05-25T16:07:30.251Z,98947.91
2023-05-25T16:12:33.992Z,98952.94
2023-05-25T16:17:37.550Z,98950.00
2023-05-25T16:22:42.466Z,98943.44
2023-05-25T16:27:47.705Z,98946.28
2023-05-25T16:32:51.252Z,98935.84
2023-05-25T16:37:56.276Z,98938.50
2023-05-25T16:42:59.781Z,98937.63
2023-05-25T16:48:03.425Z,98934.56
2023-05-25T16:53:08.638Z,98933.03
2023-05-25T16:58:12.507Z,98928.06
2023-05-25T17:03:16.171Z,98932.09
2023-05-25T17:08:21.201Z,98940.09
2023-05-25T17:13:24.771Z,98925.03
2023-05-25T17:18:28.792Z,98927.47
2023-05-25T17:23:33.583Z,98944.66
2023-05-25T17:28:36.996Z,98949.16
2023-05-25T17:33:40.506Z,98942.94
2023-05-25T17:38:45.424Z,98959.53
2023-05-25T17:43:48.957Z,98959.59
2023-05-25T17:48:52.534Z,98944.16
2023-05-25T17:53:57.613Z,98954.25
2023-05-25T17:59:01.234Z,98952.59
2023-05-25T18:04:05.125Z,98953.53
2023-05-25T18:09:10.300Z,98955.19
2023-05-25T18:14:14.036Z,98954.69
2023-05-25T18:19:20.350Z,98951.72
2023-05-25T18:24:26.055Z,98952.91
2023-05-25T18:29:29.582Z,98946.31
2023-05-25T18:34:33.207Z,98935.97
2023-05-25T18:39:38.261Z,98944.53
2023-05-25T18:44:41.915Z,98945.69
2023-05-25T18:49:45.660Z,98940.63
2023-05-25T18:54:50.679Z,98944.28
2023-05-25T18:59:55.669Z,98942.31
2023-05-25T19:04:59.165Z,98940.75
2023-05-25T19:10:04.099Z,98946.19
2023-05-25T19:15:08.821Z,98939.38
2023-05-25T19:20:12.979Z,98943.19
2023-05-25T19:25:18.919Z,98938.31
2023-05-25T19:30:23.980Z,98939.81
2023-05-25T19:35:27.524Z,98955.72
2023-05-25T19:40:33.464Z,98952.53
2023-05-25T19:45:37.143Z,98953.81
2023-05-25T19:50:40.742Z,98952.34
2023-05-25T19:55:45.996Z,98949.88
2023-05-25T20:00:49.749Z,98951.88
2023-05-25T20:05:53.582Z,98922.94
2023-05-25T20:10:58.586Z,98960.41
2023-05-25T20:16:02.169Z,98946.78
2023-05-25T20:21:06.903Z,98964.19
2023-05-25T20:26:11.865Z,98971.31
2023-05-25T20:31:15.425Z,98967.06
2023-05-25T20:36:18.970Z,98970.75
2023-05-25T20:41:23.909Z,98973.59
2023-05-25T20:46:27.589Z,98972.06
2023-05-25T20:51:32.823Z,98965.41
2023-05-25T20:56:38.244Z,98969.16
2023-05-25T21:01:44.319Z,98958.13
2023-05-25T21:06:47.889Z,98958.16
2023-05-25T21:11:52.785Z,98955.78
2023-05-25T21:16:56.513Z,98959.50
2023-05-25T21:22:00.162Z,98958.66
2023-05-25T21:27:05.531Z,98957.91
2023-05-25T21:32:09.633Z,98948.59
2023-05-25T21:37:13.181Z,98953.91
2023-05-25T21:42:18.195Z,98944.44
2023-05-25T21:47:22.257Z,98942.94
2023-05-25T21:52:25.934Z,98931.78
2023-05-25T21:57:30.859Z,98931.03
2023-05-25T22:02:34.655Z,98914.63
2023-05-25T22:07:38.370Z,98925.09
2023-05-25T22:12:43.489Z,98927.75
2023-05-25T22:17:47.310Z,98917.41
2023-05-25T22:22:51.080Z,98905.47
2023-05-25T22:27:56.744Z,98902.06
2023-05-25T22:33:00.333Z,98905.69
2023-05-25T22:38:03.943Z,98904.13
2023-05-25T22:43:12.903Z,98898.97
2023-05-25T22:48:16.470Z,98903.47
2023-05-25T22:53:20.068Z,98899.25
2023-05-25T22:58:25.505Z,98898.50
2023-05-25T23:03:30.314Z,98894.34
2023-05-25T23:08:33.964Z,98888.34
2023-05-25T23:13:38.908Z,98896.28
2023-05-25T23:18:43.113Z,98885.97
2023-05-25T23:23:46.613Z,98889.63
2023-05-25T23:28:51.643Z,98880.22
2023-05-25T23:33:58.368Z,98895.84
2023-05-25T23:39:01.926Z,98888.13
2023-05-25T23:44:07.360Z,98894.34
2023-05-25T23:49:10.891Z,98897.19
2023-05-25T23:54:14.429Z,98907.75
2023-05-25T23:59:19.348Z,98913.03
